Time,TemperatureF,DewpointF,PressureIn,WindDirection,WindDirectionDegrees,WindSpeedMPH,WindSpeedGustMPH,Humidity,HourlyPrecipIn,Conditions,Clouds,dailyrainin,SoftwareType,DateUTC
2013-01-25 00:00:00,17.4,10.8,30.29,SE,128,0.0,3.0,75,-99.99,,,0.00,1-wire,2013-01-25 06:00:00,
2013-01-25 00:05:00,17.6,11.2,30.28,SE,128,0.0,3.0,75,-99.99,,,0.00,1-wire,2013-01-25 06:05:00,
2013-01-25 00:10:00,17.8,11.1,30.27,SE,139,2.0,3.0,75,-99.99,,,0.00,1-wire,2013-01-25 06:10:00,
2013-01-25 00:15:00,17.9,11.1,30.27,SE,139,1.0,3.0,74,-99.99,,,0.00,1-wire,2013-01-25 06:15:00,
2013-01-25 00:20:00,18.0,11.1,30.27,SE,139,1.0,3.0,74,-99.99,,,0.00,1-wire,2013-01-25 06:20:00,
2013-01-25 00:25:00,18.0,11.0,30.27,SE,143,2.0,3.0,74,-99.99,,,0.00,1-wire,2013-01-25 06:25:00,
2013-01-25 00:30:00,18.0,10.8,30.26,SE,143,2.0,3.0,73,-99.99,,,0.00,1-wire,2013-01-25 06:30:00,
2013-01-25 00:35:00,18.0,10.5,30.26,SE,143,2.0,6.0,72,-99.99,,,0.00,1-wire,2013-01-25 06:35:00,
2013-01-25 00:40:00,18.3,10.7,30.26,SSE,149,1.0,3.0,72,-99.99,,,0.00,1-wire,2013-01-25 06:40:00,
2013-01-25 00:45:00,18.2,10.5,30.25,SSE,149,2.0,6.0,71,-99.99,,,0.00,1-wire,2013-01-25 06:45:00,
2013-01-25 00:50:00,18.4,10.2,30.25,SSE,149,2.0,3.0,70,-99.99,,,0.00,1-wire,2013-01-25 06:50:00,
2013-01-25 00:55:00,18.5,9.9,30.25,SE,145,1.0,6.0,69,-99.99,,,0.00,1-wire,2013-01-25 06:55:00,
2013-01-25 01:01:00,18.4,9.1,30.25,SE,145,3.0,8.0,66,-99.99,,,0.00,1-wire,2013-01-25 07:01:00,
2013-01-25 01:06:00,18.9,9.7,30.25,SSE,149,0.0,3.0,67,-99.99,,,0.00,1-wire,2013-01-25 07:06:00,
2013-01-25 01:12:00,19.0,9.4,30.25,SSE,149,0.0,0.0,65,-99.99,,,0.00,1-wire,2013-01-25 07:12:00,
2013-01-25 01:17:00,18.8,8.7,30.25,SSE,149,2.0,3.0,64,-99.99,,,0.00,1-wire,2013-01-25 07:17:00,
2013-01-25 01:22:00,19.1,8.8,30.23,SSE,148,1.0,3.0,64,-99.99,,,0.00,1-wire,2013-01-25 07:22:00,
2013-01-25 01:28:00,18.8,8.3,30.23,SSE,148,2.0,6.0,63,-99.99,,,0.00,1-wire,2013-01-25 07:28:00,
2013-01-25 01:33:00,18.8,8.3,30.23,SSE,148,2.0,6.0,63,-99.99,,,0.00,1-wire,2013-01-25 07:33:00,
2013-01-25 01:39:00,19.0,8.3,30.22,SSE,149,2.0,6.0,62,-99.99,,,0.00,1-wire,2013-01-25 07:39:00,
2013-01-25 01:44:00,19.1,8.2,30.22,SSE,149,2.0,3.0,62,-99.99,,,0.00,1-wire,2013-01-25 07:44:00,
2013-01-25 01:49:00,19.2,7.8,30.22,SSE,149,1.0,3.0,60,-99.99,,,0.00,1-wire,2013-01-25 07:49:00,
2013-01-25 01:55:00,19.1,7.6,30.22,SSE,152,1.0,3.0,60,-99.99,,,0.00,1-wire,2013-01-25 07:55:00,
2013-01-25 02:00:00,19.2,7.6,30.22,SSE,152,1.0,3.0,60,-99.99,,,0.00,1-wire,2013-01-25 08:00:00,
2013-01-25 02:06:00,19.1,7.9,30.21,SSE,152,1.0,3.0,61,-99.99,,,0.00,1-wire,2013-01-25 08:06:00,
2013-01-25 02:11:00,18.9,7.2,30.20,SSE,152,4.0,8.0,60,-99.99,,,0.00,1-wire,2013-01-25 08:11:00,
2013-01-25 02:16:00,19.0,7.3,30.20,SSE,152,2.0,6.0,60,-99.99,,,0.00,1-wire,2013-01-25 08:16:00,
2013-01-25 02:21:00,19.1,7.8,30.20,SSE,156,0.0,3.0,61,-99.99,,,0.00,1-wire,2013-01-25 08:21:00,
2013-01-25 02:26:00,19.1,7.6,30.19,SSE,156,1.0,3.0,60,-99.99,,,0.00,1-wire,2013-01-25 08:26:00,
2013-01-25 02:31:00,19.0,7.7,30.18,SSE,156,3.0,8.0,61,-99.99,,,0.00,1-wire,2013-01-25 08:31:00,
2013-01-25 02:36:00,18.9,7.9,30.18,SSE,157,2.0,6.0,61,-99.99,,,0.00,1-wire,2013-01-25 08:36:00,
2013-01-25 02:41:00,18.9,7.7,30.18,SSE,157,4.0,8.0,61,-99.99,,,0.00,1-wire,2013-01-25 08:41:00,
2013-01-25 02:46:00,18.8,7.8,30.17,SSE,157,2.0,6.0,62,-99.99,,,0.00,1-wire,2013-01-25 08:46:00,
2013-01-25 02:51:00,19.0,7.6,30.16,SSE,158,1.0,3.0,60,-99.99,,,0.00,1-wire,2013-01-25 08:51:00,
2013-01-25 02:56:00,19.1,8.1,30.16,SSE,158,1.0,3.0,61,-99.99,,,0.00,1-wire,2013-01-25 08:56:00,
2013-01-25 03:01:00,19.0,7.9,30.16,SSE,158,0.0,3.0,61,-99.99,,,0.00,1-wire,2013-01-25 09:01:00,
2013-01-25 03:06:00,19.1,8.0,30.16,SSE,157,1.0,3.0,61,-99.99,,,0.00,1-wire,2013-01-25 09:06:00,
2013-01-25 03:11:00,19.0,7.8,30.16,SSE,157,3.0,6.0,61,-99.99,,,0.00,1-wire,2013-01-25 09:11:00,
2013-01-25 03:16:00,18.8,7.9,30.15,SSE,157,2.0,6.0,62,-99.99,,,0.00,1-wire,2013-01-25 09:16:00,
2013-01-25 03:21:00,19.1,8.1,30.15,SSE,164,0.0,3.0,62,-99.99,,,0.00,1-wire,2013-01-25 09:21:00,
2013-01-25 03:26:00,18.8,8.3,30.15,SSE,164,2.0,6.0,63,-99.99,,,0.00,1-wire,2013-01-25 09:26:00,
2013-01-25 03:31:00,18.2,9.4,30.14,SSE,164,3.0,6.0,68,-99.99,,,0.00,1-wire,2013-01-25 09:31:00,
2013-01-25 03:36:00,18.3,10.6,30.14,SSE,160,1.0,3.0,71,-99.99,,,0.00,1-wire,2013-01-25 09:36:00,
2013-01-25 03:41:00,17.4,11.2,30.14,SSE,160,3.0,9.0,76,-99.99,,,0.00,1-wire,2013-01-25 09:41:00,
2013-01-25 03:46:00,16.9,12.0,30.14,SSE,160,2.0,6.0,80,-99.99,,,0.00,1-wire,2013-01-25 09:46:00,
2013-01-25 03:51:00,17.0,12.8,30.13,SSE,162,1.0,3.0,83,-99.99,,,0.00,1-wire,2013-01-25 09:51:00,
2013-01-25 03:56:00,16.9,13.1,30.13,SSE,162,3.0,9.0,85,-99.99,,,0.00,1-wire,2013-01-25 09:56:00,
2013-01-25 04:01:00,16.7,13.2,30.13,SSE,162,4.0,8.0,86,-99.99,,,0.00,1-wire,2013-01-25 10:01:00,
2013-01-25 04:06:00,17.2,13.8,30.13,South,175,2.0,6.0,86,-99.99,,,0.00,1-wire,2013-01-25 10:06:00,
2013-01-25 04:11:00,16.8,13.6,30.13,South,175,1.0,3.0,87,-99.99,,,0.00,1-wire,2013-01-25 10:11:00,
2013-01-25 04:16:00,17.0,13.8,30.13,South,175,0.0,3.0,87,-99.99,,,0.00,1-wire,2013-01-25 10:16:00,
2013-01-25 04:21:00,17.1,13.9,30.13,South,171,1.0,3.0,87,-99.99,,,0.00,1-wire,2013-01-25 10:21:00,
2013-01-25 04:26:00,17.0,13.9,30.12,South,171,2.0,6.0,88,-99.99,,,0.00,1-wire,2013-01-25 10:26:00,
2013-01-25 04:31:00,16.9,13.8,30.12,South,171,1.0,6.0,87,-99.99,,,0.00,1-wire,2013-01-25 10:31:00,
2013-01-25 04:36:00,16.7,13.8,30.11,South,175,4.0,11.0,88,-99.99,,,0.00,1-wire,2013-01-25 10:36:00,
2013-01-25 04:41:00,16.8,13.8,30.11,South,175,3.0,6.0,88,-99.99,,,0.00,1-wire,2013-01-25 10:41:00,
2013-01-25 04:46:00,16.8,14.0,30.10,South,175,1.0,3.0,88,-99.99,,,0.00,1-wire,2013-01-25 10:46:00,
2013-01-25 04:51:00,16.6,13.7,30.10,South,177,2.0,6.0,88,-99.99,,,0.00,1-wire,2013-01-25 10:51:00,
2013-01-25 04:56:00,16.8,13.8,30.10,South,177,1.0,6.0,88,-99.99,,,0.00,1-wire,2013-01-25 10:56:00,
2013-01-25 05:02:00,16.8,14.0,30.10,South,177,2.0,6.0,88,-99.99,,,0.00,1-wire,2013-01-25 11:02:00,
2013-01-25 05:07:00,16.8,14.0,30.10,South,179,2.0,6.0,88,-99.99,,,0.00,1-wire,2013-01-25 11:07:00,
2013-01-25 05:13:00,17.0,14.0,30.10,South,179,0.0,3.0,88,-99.99,,,0.00,1-wire,2013-01-25 11:13:00,
2013-01-25 05:19:00,16.8,13.8,30.09,South,179,1.0,3.0,88,-99.99,,,0.00,1-wire,2013-01-25 11:19:00,
2013-01-25 05:24:00,16.8,13.9,30.10,South,183,3.0,6.0,88,-99.99,,,0.00,1-wire,2013-01-25 11:24:00,
2013-01-25 05:30:00,16.8,13.9,30.09,South,183,2.0,3.0,88,-99.99,,,0.00,1-wire,2013-01-25 11:30:00,
2013-01-25 05:35:00,17.1,14.1,30.10,South,183,2.0,6.0,88,-99.99,,,0.00,1-wire,2013-01-25 11:35:00,
2013-01-25 05:40:00,16.8,13.8,30.09,South,180,3.0,6.0,88,-99.99,,,0.00,1-wire,2013-01-25 11:40:00,
2013-01-25 05:46:00,17.1,14.2,30.08,South,180,1.0,3.0,88,-99.99,,,0.00,1-wire,2013-01-25 11:46:00,
2013-01-25 05:51:00,17.2,14.2,30.08,South,187,3.0,6.0,88,-99.99,,,0.00,1-wire,2013-01-25 11:51:00,
2013-01-25 05:57:00,17.1,14.1,30.08,South,187,1.0,3.0,88,-99.99,,,0.00,1-wire,2013-01-25 11:57:00,
2013-01-25 06:02:00,16.9,13.9,30.08,South,187,1.0,3.0,88,-99.99,,,0.00,1-wire,2013-01-25 12:02:00,
2013-01-25 06:08:00,17.0,14.1,30.07,South,175,3.0,6.0,88,-99.99,,,0.00,1-wire,2013-01-25 12:08:00,
2013-01-25 06:14:00,17.2,14.2,30.07,South,175,0.0,3.0,88,-99.99,,,0.00,1-wire,2013-01-25 12:14:00,
2013-01-25 06:19:00,17.2,14.2,30.07,South,175,2.0,10.0,88,-99.99,,,0.00,1-wire,2013-01-25 12:19:00,
2013-01-25 06:25:00,17.0,14.0,30.07,South,189,1.0,3.0,88,-99.99,,,0.00,1-wire,2013-01-25 12:25:00,
2013-01-25 06:30:00,17.0,14.1,30.07,South,189,5.0,9.0,88,-99.99,,,0.00,1-wire,2013-01-25 12:30:00,
2013-01-25 06:35:00,17.2,14.2,30.07,South,189,3.0,8.0,88,-99.99,,,0.00,1-wire,2013-01-25 12:35:00,
2013-01-25 06:40:00,17.2,14.2,30.05,South,185,1.0,6.0,88,-99.99,,,0.00,1-wire,2013-01-25 12:40:00,
2013-01-25 06:45:00,17.3,14.3,30.05,South,185,3.0,6.0,88,-99.99,,,0.00,1-wire,2013-01-25 12:45:00,
2013-01-25 06:50:00,17.2,14.2,30.05,South,185,3.0,6.0,88,-99.99,,,0.00,1-wire,2013-01-25 12:50:00,
2013-01-25 06:55:00,17.5,14.5,30.05,South,189,1.0,3.0,88,-99.99,,,0.00,1-wire,2013-01-25 12:55:00,
2013-01-25 07:00:00,17.3,14.4,30.04,South,189,3.0,6.0,88,-99.99,,,0.00,1-wire,2013-01-25 13:00:00,
2013-01-25 07:05:00,17.3,14.4,30.05,South,189,2.0,6.0,88,-99.99,,,0.00,1-wire,2013-01-25 13:05:00,
2013-01-25 07:10:00,17.3,14.3,30.05,South,184,1.0,3.0,88,-99.99,,,0.00,1-wire,2013-01-25 13:10:00,
2013-01-25 07:15:00,17.5,14.5,30.04,South,184,1.0,3.0,88,-99.99,,,0.00,1-wire,2013-01-25 13:15:00,
2013-01-25 07:20:00,17.7,14.6,30.05,South,184,3.0,6.0,87,-99.99,,,0.00,1-wire,2013-01-25 13:20:00,
2013-01-25 07:25:00,17.5,14.4,30.04,South,187,2.0,6.0,87,-99.99,,,0.00,1-wire,2013-01-25 13:25:00,
2013-01-25 07:30:00,17.7,14.5,30.03,South,187,4.0,8.0,87,-99.99,,,0.00,1-wire,2013-01-25 13:30:00,
2013-01-25 07:36:00,17.6,14.4,30.04,South,188,2.0,6.0,87,-99.99,,,0.00,1-wire,2013-01-25 13:36:00,
2013-01-25 07:41:00,17.7,14.5,30.03,South,188,3.0,8.0,87,-99.99,,,0.00,1-wire,2013-01-25 13:41:00,
2013-01-25 07:46:00,17.5,14.3,30.03,South,188,2.0,9.0,87,-99.99,,,0.00,1-wire,2013-01-25 13:46:00,
2013-01-25 07:52:00,17.7,14.4,30.04,South,188,2.0,6.0,87,-99.99,,,0.00,1-wire,2013-01-25 13:52:00,
2013-01-25 07:57:00,17.7,14.5,30.04,South,188,4.0,8.0,87,-99.99,,,0.00,1-wire,2013-01-25 13:57:00,
2013-01-25 08:02:00,18.1,14.7,30.04,South,188,5.0,11.0,87,-99.99,,,0.00,1-wire,2013-01-25 14:02:00,
2013-01-25 08:07:00,17.9,14.7,30.03,South,189,3.0,8.0,87,-99.99,,,0.00,1-wire,2013-01-25 14:07:00,
2013-01-25 08:12:00,17.9,14.6,30.03,South,189,3.0,6.0,87,-99.99,,,0.00,1-wire,2013-01-25 14:12:00,
2013-01-25 08:18:00,18.6,15.2,30.03,South,189,2.0,6.0,86,-99.99,,,0.00,1-wire,2013-01-25 14:18:00,
2013-01-25 08:23:00,18.2,14.9,30.03,SSW,202,3.0,6.0,87,-99.99,,,0.00,1-wire,2013-01-25 14:23:00,
2013-01-25 08:28:00,18.7,15.3,30.03,SSW,202,3.0,6.0,86,-99.99,,,0.00,1-wire,2013-01-25 14:28:00,
2013-01-25 08:33:00,18.5,15.1,30.03,SSW,202,4.0,11.0,86,-99.99,,,0.00,1-wire,2013-01-25 14:33:00,
2013-01-25 08:38:00,18.7,15.3,30.02,SSW,198,3.0,6.0,86,-99.99,,,0.00,1-wire,2013-01-25 14:38:00,
2013-01-25 08:43:00,18.9,15.5,30.03,SSW,198,4.0,8.0,86,-99.99,,,0.00,1-wire,2013-01-25 14:43:00,
2013-01-25 08:48:00,18.8,15.4,30.02,SSW,198,4.0,8.0,86,-99.99,,,0.00,1-wire,2013-01-25 14:48:00,
2013-01-25 08:54:00,19.0,15.5,30.01,SSW,202,6.0,9.0,86,-99.99,,,0.00,1-wire,2013-01-25 14:54:00,
2013-01-25 08:59:00,19.2,15.7,30.02,SSW,202,1.0,3.0,86,-99.99,,,0.00,1-wire,2013-01-25 14:59:00,
2013-01-25 09:05:00,19.4,15.7,30.01,SSW,202,1.0,3.0,85,-99.99,,,0.00,1-wire,2013-01-25 15:05:00,
2013-01-25 09:10:00,19.4,15.7,30.01,SSW,205,2.0,6.0,85,-99.99,,,0.00,1-wire,2013-01-25 15:10:00,
2013-01-25 09:16:00,20.1,16.1,30.01,SSW,205,0.0,3.0,84,-99.99,,,0.00,1-wire,2013-01-25 15:16:00,
2013-01-25 09:21:00,20.1,15.9,30.01,SSW,207,4.0,9.0,84,-99.99,,,0.00,1-wire,2013-01-25 15:21:00,
2013-01-25 09:27:00,20.2,15.9,30.01,SSW,207,4.0,6.0,83,-99.99,,,0.00,1-wire,2013-01-25 15:27:00,
2013-01-25 09:32:00,20.5,16.0,30.01,SSW,207,3.0,6.0,83,-99.99,,,0.00,1-wire,2013-01-25 15:32:00,
2013-01-25 09:37:00,20.5,15.7,30.01,SSW,212,5.0,11.0,81,-99.99,,,0.00,1-wire,2013-01-25 15:37:00,
2013-01-25 09:42:00,20.7,15.9,30.00,SSW,212,3.0,6.0,81,-99.99,,,0.00,1-wire,2013-01-25 15:42:00,
2013-01-25 09:47:00,20.7,15.8,30.00,SSW,212,2.0,6.0,81,-99.99,,,0.00,1-wire,2013-01-25 15:47:00,
2013-01-25 09:52:00,20.9,15.9,30.00,SSW,201,2.0,3.0,81,-99.99,,,0.00,1-wire,2013-01-25 15:52:00,
2013-01-25 09:57:00,20.8,15.5,30.00,SSW,201,3.0,9.0,80,-99.99,,,0.00,1-wire,2013-01-25 15:57:00,
2013-01-25 10:03:00,21.4,16.0,30.00,SSW,201,4.0,6.0,79,-99.99,,,0.00,1-wire,2013-01-25 16:03:00,
2013-01-25 10:08:00,21.8,16.0,30.00,SW,218,3.0,6.0,78,-99.99,,,0.00,1-wire,2013-01-25 16:08:00,
2013-01-25 10:13:00,21.7,15.7,29.99,SW,218,4.0,9.0,77,-99.99,,,0.00,1-wire,2013-01-25 16:13:00,
2013-01-25 10:18:00,21.9,15.5,29.99,SW,218,5.0,11.0,76,-99.99,,,0.00,1-wire,2013-01-25 16:18:00,
2013-01-25 10:23:00,22.1,15.8,29.99,SSW,212,5.0,13.0,76,-99.99,,,0.00,1-wire,2013-01-25 16:23:00,
2013-01-25 10:28:00,22.7,16.2,29.99,SSW,212,1.0,3.0,76,-99.99,,,0.00,1-wire,2013-01-25 16:28:00,
2013-01-25 10:33:00,23.5,16.2,29.99,SSW,212,3.0,8.0,73,-99.99,,,0.00,1-wire,2013-01-25 16:33:00,
2013-01-25 10:38:00,24.5,16.3,29.99,SW,217,3.0,6.0,71,-99.99,,,0.00,1-wire,2013-01-25 16:38:00,
2013-01-25 10:43:00,23.6,15.6,29.99,SW,217,5.0,9.0,71,-99.99,,,0.00,1-wire,2013-01-25 16:43:00,
2013-01-25 10:48:00,23.5,15.6,29.98,SW,217,3.0,6.0,71,-99.99,,,0.00,1-wire,2013-01-25 16:48:00,
2013-01-25 10:53:00,23.6,15.8,29.97,SW,230,2.0,3.0,72,-99.99,,,0.00,1-wire,2013-01-25 16:53:00,
2013-01-25 10:58:00,23.5,15.6,29.97,SW,230,3.0,6.0,71,-99.99,,,0.00,1-wire,2013-01-25 16:58:00,
2013-01-25 11:03:00,24.1,15.5,29.97,SW,230,3.0,10.0,69,-99.99,,,0.00,1-wire,2013-01-25 17:03:00,
2013-01-25 11:08:00,25.0,16.2,29.96,SW,231,3.0,6.0,69,-99.99,,,0.00,1-wire,2013-01-25 17:08:00,
2013-01-25 11:13:00,24.9,15.9,29.96,SW,231,7.0,13.0,68,-99.99,,,0.00,1-wire,2013-01-25 17:13:00,
2013-01-25 11:18:00,24.3,15.7,29.95,SW,231,4.0,8.0,69,-99.99,,,0.00,1-wire,2013-01-25 17:18:00,
2013-01-25 11:23:00,24.8,15.5,29.95,SW,223,2.0,6.0,67,-99.99,,,0.00,1-wire,2013-01-25 17:23:00,
2013-01-25 11:28:00,25.0,15.0,29.94,SW,223,5.0,9.0,65,-99.99,,,0.00,1-wire,2013-01-25 17:28:00,
2013-01-25 11:33:00,25.4,15.1,29.94,SW,223,6.0,11.0,64,-99.99,,,0.00,1-wire,2013-01-25 17:33:00,
2013-01-25 11:38:00,25.1,14.7,29.94,SW,234,5.0,11.0,64,-99.99,,,0.00,1-wire,2013-01-25 17:38:00,
2013-01-25 11:43:00,25.4,14.4,29.94,SW,234,5.0,9.0,62,-99.99,,,0.00,1-wire,2013-01-25 17:43:00,
2013-01-25 11:48:00,25.7,14.7,29.94,SW,234,3.0,8.0,63,-99.99,,,0.00,1-wire,2013-01-25 17:48:00,
2013-01-25 11:53:00,26.5,14.6,29.94,SW,229,3.0,6.0,60,-99.99,,,0.00,1-wire,2013-01-25 17:53:00,
2013-01-25 11:58:00,26.2,14.1,29.94,SW,229,6.0,9.0,60,-99.99,,,0.00,1-wire,2013-01-25 17:58:00,
2013-01-25 12:04:00,26.3,13.5,29.92,SW,229,10.0,17.0,58,-99.99,,,0.00,1-wire,2013-01-25 18:04:00,
2013-01-25 12:09:00,26.3,13.7,29.92,WSW,239,4.0,9.0,58,-99.99,,,0.00,1-wire,2013-01-25 18:09:00,
2013-01-25 12:15:00,27.2,14.3,29.92,WSW,239,4.0,8.0,58,-99.99,,,0.00,1-wire,2013-01-25 18:15:00,
2013-01-25 12:20:00,25.9,13.3,29.92,WSW,239,5.0,9.0,58,-99.99,,,0.00,1-wire,2013-01-25 18:20:00,
2013-01-25 12:26:00,26.4,13.7,29.92,WSW,256,9.0,13.0,58,-99.99,,,0.00,1-wire,2013-01-25 18:26:00,
2013-01-25 12:32:00,27.3,14.5,29.92,WSW,256,3.0,6.0,58,-99.99,,,0.00,1-wire,2013-01-25 18:32:00,
2013-01-25 12:37:00,27.2,14.3,29.92,West,266,4.0,6.0,58,-99.99,,,0.00,1-wire,2013-01-25 18:37:00,
2013-01-25 12:42:00,26.7,14.0,29.92,West,266,5.0,11.0,58,-99.99,,,0.00,1-wire,2013-01-25 18:42:00,
2013-01-25 12:47:00,26.5,13.8,29.92,West,266,7.0,11.0,58,-99.99,,,0.00,1-wire,2013-01-25 18:47:00,
2013-01-25 12:52:00,26.8,14.1,29.92,West,261,6.0,13.0,58,-99.99,,,0.00,1-wire,2013-01-25 18:52:00,
2013-01-25 12:58:00,26.3,13.6,29.91,West,261,5.0,10.0,58,-99.99,,,0.00,1-wire,2013-01-25 18:58:00,
2013-01-25 13:03:00,26.7,13.9,29.90,West,261,2.0,8.0,58,-99.99,,,0.00,1-wire,2013-01-25 19:03:00,
2013-01-25 13:08:00,26.9,14.2,29.91,West,266,2.0,6.0,58,-99.99,,,0.00,1-wire,2013-01-25 19:08:00,
2013-01-25 13:13:00,26.7,13.9,29.90,West,266,7.0,14.0,58,-99.99,,,0.00,1-wire,2013-01-25 19:13:00,
2013-01-25 13:18:00,26.8,14.4,29.90,West,266,6.0,13.0,59,-99.99,,,0.00,1-wire,2013-01-25 19:18:00,
2013-01-25 13:23:00,26.5,13.8,29.90,West,259,4.0,8.0,58,-99.99,,,0.00,1-wire,2013-01-25 19:23:00,
2013-01-25 13:29:00,27.0,14.4,29.90,West,259,4.0,6.0,58,-99.99,,,0.00,1-wire,2013-01-25 19:29:00,
2013-01-25 13:35:00,26.8,14.0,29.90,West,259,4.0,8.0,58,-99.99,,,0.00,1-wire,2013-01-25 19:35:00,
2013-01-25 13:40:00,26.9,14.1,29.90,West,280,4.0,6.0,58,-99.99,,,0.00,1-wire,2013-01-25 19:40:00,
2013-01-25 13:45:00,26.9,14.4,29.90,West,280,6.0,11.0,59,-99.99,,,0.00,1-wire,2013-01-25 19:45:00,
2013-01-25 13:50:00,26.7,14.2,29.91,West,280,5.0,10.0,59,-99.99,,,0.00,1-wire,2013-01-25 19:50:00,
2013-01-25 13:55:00,26.6,14.2,29.91,West,266,6.0,9.0,59,-99.99,,,0.00,1-wire,2013-01-25 19:55:00,
2013-01-25 14:00:00,26.5,14.1,29.91,West,266,4.0,9.0,59,-99.99,,,0.00,1-wire,2013-01-25 20:00:00,
2013-01-25 14:05:00,27.1,14.5,29.91,West,266,2.0,8.0,59,-99.99,,,0.00,1-wire,2013-01-25 20:05:00,
2013-01-25 14:10:00,26.9,14.5,29.92,West,265,2.0,8.0,59,-99.99,,,0.00,1-wire,2013-01-25 20:10:00,
2013-01-25 14:15:00,27.2,15.0,29.92,West,265,2.0,3.0,60,-99.99,,,0.00,1-wire,2013-01-25 20:15:00,
2013-01-25 14:20:00,27.1,14.8,29.92,West,265,5.0,9.0,59,-99.99,,,0.00,1-wire,2013-01-25 20:20:00,
2013-01-25 14:25:00,26.6,15.0,29.92,West,267,3.0,6.0,61,-99.99,,,0.00,1-wire,2013-01-25 20:25:00,
2013-01-25 14:31:00,26.4,15.3,29.93,West,267,6.0,14.0,62,-99.99,,,0.00,1-wire,2013-01-25 20:31:00,
2013-01-25 14:36:00,26.5,15.6,29.93,West,276,3.0,6.0,63,-99.99,,,0.00,1-wire,2013-01-25 20:36:00,
2013-01-25 14:41:00,26.5,15.7,29.93,West,276,3.0,6.0,63,-99.99,,,0.00,1-wire,2013-01-25 20:41:00,
2013-01-25 14:46:00,26.0,15.5,29.93,West,276,5.0,9.0,64,-99.99,,,0.00,1-wire,2013-01-25 20:46:00,
2013-01-25 14:52:00,26.0,15.4,29.93,West,274,4.0,8.0,64,-99.99,,,0.00,1-wire,2013-01-25 20:52:00,
2013-01-25 14:57:00,25.6,15.8,29.94,West,274,3.0,11.0,66,-99.99,,,0.00,1-wire,2013-01-25 20:57:00,
2013-01-25 15:02:00,25.7,16.0,29.94,West,274,5.0,10.0,66,-99.99,,,0.00,1-wire,2013-01-25 21:02:00,
2013-01-25 15:07:00,25.3,15.4,29.94,WNW,297,5.0,13.0,66,-99.99,,,0.00,1-wire,2013-01-25 21:07:00,
2013-01-25 15:13:00,25.2,15.6,29.95,WNW,297,5.0,22.0,66,-99.99,,,0.00,1-wire,2013-01-25 21:13:00,
2013-01-25 15:18:00,25.2,16.0,29.95,WNW,297,5.0,13.0,68,-99.99,,,0.00,1-wire,2013-01-25 21:18:00,
2013-01-25 15:23:00,25.1,16.5,29.95,WNW,298,4.0,9.0,69,-99.99,,,0.00,1-wire,2013-01-25 21:23:00,
2013-01-25 15:29:00,24.7,17.3,29.95,WNW,298,4.0,6.0,73,-99.99,,,0.00,1-wire,2013-01-25 21:29:00,
2013-01-25 15:34:00,24.5,18.0,29.95,WNW,298,3.0,9.0,76,-99.99,,,0.00,1-wire,2013-01-25 21:34:00,
2013-01-25 15:39:00,24.4,18.2,29.96,WNW,298,2.0,6.0,77,-99.99,,,0.00,1-wire,2013-01-25 21:39:00,
2013-01-25 15:44:00,24.1,18.4,29.96,WNW,298,3.0,9.0,79,-99.99,,,0.00,1-wire,2013-01-25 21:44:00,
2013-01-25 15:49:00,23.9,18.8,29.96,WNW,298,4.0,9.0,80,-99.99,,,0.00,1-wire,2013-01-25 21:49:00,
2013-01-25 15:54:00,23.6,18.5,29.96,WNW,286,2.0,6.0,81,-99.99,,,0.00,1-wire,2013-01-25 21:54:00,
2013-01-25 15:59:00,23.6,17.9,29.96,WNW,286,1.0,3.0,79,-99.99,,,0.00,1-wire,2013-01-25 21:59:00,
2013-01-25 16:04:00,23.7,17.6,29.97,WNW,286,3.0,6.0,77,-99.99,,,0.00,1-wire,2013-01-25 22:04:00,
2013-01-25 16:09:00,23.8,16.9,29.97,WNW,300,2.0,6.0,75,-99.99,,,0.00,1-wire,2013-01-25 22:09:00,
2013-01-25 16:14:00,23.8,16.3,29.97,WNW,300,5.0,9.0,73,-99.99,,,0.00,1-wire,2013-01-25 22:14:00,
2013-01-25 16:19:00,23.9,16.1,29.97,WNW,300,3.0,6.0,72,-99.99,,,0.00,1-wire,2013-01-25 22:19:00,
2013-01-25 16:24:00,23.8,16.2,29.97,NW,323,2.0,3.0,72,-99.99,,,0.00,1-wire,2013-01-25 22:24:00,
2013-01-25 16:29:00,23.7,15.9,29.98,NW,323,2.0,6.0,72,-99.99,,,0.00,1-wire,2013-01-25 22:29:00,
2013-01-25 16:34:00,23.8,16.0,29.98,NW,323,2.0,6.0,72,-99.99,,,0.00,1-wire,2013-01-25 22:34:00,
2013-01-25 16:39:00,23.8,16.2,29.98,NW,304,3.0,6.0,72,-99.99,,,0.00,1-wire,2013-01-25 22:39:00,
2013-01-25 16:44:00,23.7,15.8,29.98,NW,304,1.0,3.0,71,-99.99,,,0.00,1-wire,2013-01-25 22:44:00,
2013-01-25 16:49:00,23.9,16.2,29.99,NW,304,1.0,6.0,72,-99.99,,,0.00,1-wire,2013-01-25 22:49:00,
2013-01-25 16:54:00,23.8,16.0,29.99,WNW,303,1.0,6.0,72,-99.99,,,0.00,1-wire,2013-01-25 22:54:00,
2013-01-25 16:59:00,23.7,16.0,29.99,WNW,303,0.0,3.0,72,-99.99,,,0.00,1-wire,2013-01-25 22:59:00,
2013-01-25 17:04:00,23.6,15.9,29.99,WNW,303,1.0,3.0,72,-99.99,,,0.00,1-wire,2013-01-25 23:04:00,
2013-01-25 17:09:00,23.5,16.1,29.99,NW,310,1.0,3.0,73,-99.99,,,0.00,1-wire,2013-01-25 23:09:00,
2013-01-25 17:14:00,23.4,16.1,29.99,NW,310,2.0,6.0,73,-99.99,,,0.00,1-wire,2013-01-25 23:14:00,
2013-01-25 17:19:00,23.5,16.1,29.99,NW,310,1.0,3.0,73,-99.99,,,0.00,1-wire,2013-01-25 23:19:00,
2013-01-25 17:24:00,23.4,16.0,29.99,NW,312,2.0,6.0,73,-99.99,,,0.00,1-wire,2013-01-25 23:24:00,
2013-01-25 17:29:00,23.1,15.9,29.99,NW,312,2.0,6.0,73,-99.99,,,0.00,1-wire,2013-01-25 23:29:00,
2013-01-25 17:34:00,23.5,16.3,30.00,NW,312,1.0,3.0,74,-99.99,,,0.00,1-wire,2013-01-25 23:34:00,
2013-01-25 17:39:00,23.3,16.2,30.00,NW,317,2.0,6.0,74,-99.99,,,0.00,1-wire,2013-01-25 23:39:00,
2013-01-25 17:44:00,23.1,16.2,30.01,NW,317,2.0,6.0,74,-99.99,,,0.00,1-wire,2013-01-25 23:44:00,
2013-01-25 17:49:00,23.0,16.3,30.01,NW,317,3.0,6.0,75,-99.99,,,0.00,1-wire,2013-01-25 23:49:00,
2013-01-25 17:55:00,22.8,16.4,30.01,NW,323,5.0,8.0,76,-99.99,,,0.00,1-wire,2013-01-25 23:55:00,
2013-01-25 18:00:00,22.7,16.8,30.02,NW,323,4.0,8.0,78,-99.99,,,0.00,1-wire,2013-01-26 00:00:00,
2013-01-25 18:06:00,22.1,18.4,30.03,NNW,333,5.0,10.0,85,-99.99,,,0.00,1-wire,2013-01-26 00:06:00,
2013-01-25 18:11:00,21.9,18.0,30.03,NNW,333,2.0,6.0,85,-99.99,,,0.00,1-wire,2013-01-26 00:11:00,
2013-01-25 18:17:00,22.1,17.7,30.03,NNW,333,4.0,8.0,83,-99.99,,,0.00,1-wire,2013-01-26 00:17:00,
2013-01-25 18:22:00,22.2,17.7,30.03,NNW,332,2.0,6.0,82,-99.99,,,0.00,1-wire,2013-01-26 00:22:00,
2013-01-25 18:28:00,22.0,17.3,30.03,NNW,332,2.0,6.0,82,-99.99,,,0.00,1-wire,2013-01-26 00:28:00,
2013-01-25 18:34:00,21.9,16.6,30.04,NNW,332,3.0,6.0,80,-99.99,,,0.00,1-wire,2013-01-26 00:34:00,
2013-01-25 18:39:00,21.8,16.5,30.03,NNW,330,4.0,11.0,79,-99.99,,,0.00,1-wire,2013-01-26 00:39:00,
2013-01-25 18:45:00,21.5,15.4,30.04,NNW,330,2.0,6.0,77,-99.99,,,0.00,1-wire,2013-01-26 00:45:00,
2013-01-25 18:50:00,21.8,15.3,30.04,NNW,330,2.0,6.0,76,-99.99,,,0.00,1-wire,2013-01-26 00:50:00,
2013-01-25 18:55:00,21.7,14.5,30.05,NNW,327,3.0,6.0,73,-99.99,,,0.00,1-wire,2013-01-26 00:55:00,
2013-01-25 19:00:00,21.6,14.0,30.05,NNW,327,3.0,6.0,72,-99.99,,,0.00,1-wire,2013-01-26 01:00:00,
2013-01-25 19:05:00,21.5,14.0,30.05,NNW,327,3.0,6.0,72,-99.99,,,0.00,1-wire,2013-01-26 01:05:00,
2013-01-25 19:10:00,21.0,12.7,30.06,NNW,333,5.0,9.0,70,-99.99,,,0.00,1-wire,2013-01-26 01:10:00,
2013-01-25 19:15:00,20.8,12.5,30.06,NNW,333,4.0,6.0,70,-99.99,,,0.00,1-wire,2013-01-26 01:15:00,
2013-01-25 19:20:00,20.8,12.0,30.07,NNW,333,7.0,11.0,68,-99.99,,,0.00,1-wire,2013-01-26 01:20:00,
2013-01-25 19:25:00,20.3,11.5,30.07,NNW,330,5.0,9.0,68,-99.99,,,0.00,1-wire,2013-01-26 01:25:00,
2013-01-25 19:30:00,20.3,11.5,30.07,NNW,330,3.0,6.0,68,-99.99,,,0.00,1-wire,2013-01-26 01:30:00,
2013-01-25 19:35:00,19.7,11.1,30.07,NNW,330,5.0,8.0,69,-99.99,,,0.00,1-wire,2013-01-26 01:35:00,
2013-01-25 19:40:00,19.8,11.0,30.07,NNW,331,3.0,6.0,68,-99.99,,,0.00,1-wire,2013-01-26 01:40:00,
2013-01-25 19:45:00,19.6,10.9,30.07,NNW,331,2.0,6.0,68,-99.99,,,0.00,1-wire,2013-01-26 01:45:00,
2013-01-25 19:50:00,19.4,10.5,30.07,NNW,331,3.0,8.0,68,-99.99,,,0.00,1-wire,2013-01-26 01:50:00,
2013-01-25 19:55:00,19.4,10.6,30.07,NW,326,3.0,6.0,68,-99.99,,,0.00,1-wire,2013-01-26 01:55:00,
2013-01-25 20:00:00,19.4,10.8,30.07,NW,326,0.0,3.0,69,-99.99,,,0.00,1-wire,2013-01-26 02:00:00,
2013-01-25 20:05:00,19.6,11.2,30.07,NW,326,1.0,6.0,69,-99.99,,,0.00,1-wire,2013-01-26 02:05:00,
2013-01-25 20:10:00,19.1,10.9,30.07,NNW,329,1.0,3.0,70,-99.99,,,0.00,1-wire,2013-01-26 02:10:00,
2013-01-25 20:15:00,19.5,11.3,30.07,NNW,329,0.0,0.0,70,-99.99,,,0.00,1-wire,2013-01-26 02:15:00,
2013-01-25 20:20:00,19.1,11.1,30.08,NNW,329,1.0,3.0,71,-99.99,,,0.00,1-wire,2013-01-26 02:20:00,
2013-01-25 20:25:00,18.4,10.9,30.09,NW,321,2.0,6.0,72,-99.99,,,0.00,1-wire,2013-01-26 02:25:00,
2013-01-25 20:30:00,18.6,10.9,30.09,NW,321,1.0,3.0,71,-99.99,,,0.00,1-wire,2013-01-26 02:30:00,
2013-01-25 20:36:00,18.0,10.6,30.09,NW,315,2.0,6.0,72,-99.99,,,0.00,1-wire,2013-01-26 02:36:00,
2013-01-25 20:41:00,17.9,10.3,30.09,NW,315,2.0,6.0,72,-99.99,,,0.00,1-wire,2013-01-26 02:41:00,
2013-01-25 20:46:00,18.1,10.4,30.10,NW,315,2.0,6.0,71,-99.99,,,0.00,1-wire,2013-01-26 02:46:00,
2013-01-25 20:52:00,17.8,10.2,30.10,NW,310,1.0,3.0,71,-99.99,,,0.00,1-wire,2013-01-26 02:52:00,
2013-01-25 20:58:00,17.6,9.9,30.10,NW,310,3.0,6.0,71,-99.99,,,0.00,1-wire,2013-01-26 02:58:00,
2013-01-25 21:03:00,17.9,10.1,30.10,NW,310,1.0,3.0,71,-99.99,,,0.00,1-wire,2013-01-26 03:03:00,
2013-01-25 21:08:00,17.5,10.0,30.10,NW,315,1.0,3.0,72,-99.99,,,0.00,1-wire,2013-01-26 03:08:00,
2013-01-25 21:14:00,17.6,9.9,30.11,NW,315,2.0,6.0,71,-99.99,,,0.00,1-wire,2013-01-26 03:14:00,
2013-01-25 21:19:00,17.4,9.9,30.12,NW,315,1.0,3.0,72,-99.99,,,0.00,1-wire,2013-01-26 03:19:00,
2013-01-25 21:25:00,17.2,9.8,30.12,NW,313,2.0,6.0,72,-99.99,,,0.00,1-wire,2013-01-26 03:25:00,
2013-01-25 21:30:00,17.5,10.1,30.12,NW,313,0.0,3.0,72,-99.99,,,0.00,1-wire,2013-01-26 03:30:00,
2013-01-25 21:36:00,17.2,9.7,30.12,NW,317,2.0,6.0,72,-99.99,,,0.00,1-wire,2013-01-26 03:36:00,
2013-01-25 21:42:00,17.2,9.8,30.12,NW,317,2.0,6.0,72,-99.99,,,0.00,1-wire,2013-01-26 03:42:00,
2013-01-25 21:47:00,16.9,9.9,30.12,NW,317,1.0,3.0,73,-99.99,,,0.00,1-wire,2013-01-26 03:47:00,
2013-01-25 21:53:00,17.0,9.9,30.12,NW,307,1.0,3.0,73,-99.99,,,0.00,1-wire,2013-01-26 03:53:00,
2013-01-25 21:58:00,17.0,9.9,30.12,NW,307,2.0,6.0,73,-99.99,,,0.00,1-wire,2013-01-26 03:58:00,
2013-01-25 22:03:00,17.0,9.8,30.13,NW,307,0.0,3.0,73,-99.99,,,0.00,1-wire,2013-01-26 04:03:00,
2013-01-25 22:08:00,16.6,9.6,30.13,NW,311,0.0,3.0,73,-99.99,,,0.00,1-wire,2013-01-26 04:08:00,
2013-01-25 22:13:00,16.6,9.4,30.14,NW,311,1.0,6.0,73,-99.99,,,0.00,1-wire,2013-01-26 04:13:00,
2013-01-25 22:19:00,16.6,9.4,30.14,NW,311,1.0,3.0,73,-99.99,,,0.00,1-wire,2013-01-26 04:19:00,
2013-01-25 22:24:00,16.6,9.4,30.14,NW,311,1.0,3.0,73,-99.99,,,0.00,1-wire,2013-01-26 04:24:00,
2013-01-25 22:29:00,16.2,9.3,30.14,NW,311,2.0,8.0,74,-99.99,,,0.00,1-wire,2013-01-26 04:29:00,
2013-01-25 22:34:00,16.0,9.0,30.14,NW,311,5.0,9.0,73,-99.99,,,0.00,1-wire,2013-01-26 04:34:00,
2013-01-25 22:40:00,15.8,8.9,30.15,NW,309,2.0,6.0,74,-99.99,,,0.00,1-wire,2013-01-26 04:40:00,
2013-01-25 22:45:00,15.8,8.9,30.15,NW,309,3.0,6.0,74,-99.99,,,0.00,1-wire,2013-01-26 04:45:00,
2013-01-25 22:51:00,15.4,8.7,30.15,NW,315,1.0,3.0,74,-99.99,,,0.00,1-wire,2013-01-26 04:51:00,
2013-01-25 22:57:00,15.4,8.8,30.15,NW,315,1.0,3.0,75,-99.99,,,0.00,1-wire,2013-01-26 04:57:00,
2013-01-25 23:00:00,15.6,8.9,30.16,NW,315,0.0,3.0,74,-99.99,,,0.00,1-wire,2013-01-26 05:00:00,
2013-01-25 23:01:00,15.5,8.9,30.16,NW,315,2.0,6.0,75,-99.99,,,0.00,1-wire,2013-01-26 05:01:00,
2013-01-25 23:04:00,15.3,8.7,30.16,NW,315,1.0,6.0,75,-99.99,,,0.00,1-wire,2013-01-26 05:04:00,
2013-01-25 23:09:00,15.1,8.7,30.16,NW,311,3.0,6.0,75,-99.99,,,0.00,1-wire,2013-01-26 05:09:00,
2013-01-25 23:11:00,15.2,8.6,30.16,NW,311,2.0,6.0,75,-99.99,,,0.00,1-wire,2013-01-26 05:11:00,
2013-01-25 23:16:00,15.1,8.5,30.16,NW,311,1.0,3.0,75,-99.99,,,0.00,1-wire,2013-01-26 05:16:00,
2013-01-25 23:21:00,15.0,8.5,30.16,NW,319,1.0,6.0,75,-99.99,,,0.00,1-wire,2013-01-26 05:21:00,
2013-01-25 23:26:00,14.9,8.4,30.16,NW,319,1.0,3.0,75,-99.99,,,0.00,1-wire,2013-01-26 05:26:00,
2013-01-25 23:31:00,14.9,8.5,30.17,NW,319,3.0,6.0,75,-99.99,,,0.00,1-wire,2013-01-26 05:31:00,
2013-01-25 23:36:00,14.9,8.6,30.17,NW,308,2.0,6.0,75,-99.99,,,0.00,1-wire,2013-01-26 05:36:00,
2013-01-25 23:41:00,14.6,8.4,30.17,NW,308,2.0,6.0,76,-99.99,,,0.00,1-wire,2013-01-26 05:41:00,
2013-01-25 23:46:00,14.8,8.5,30.18,NW,308,2.0,6.0,76,-99.99,,,0.00,1-wire,2013-01-26 05:46:00,
2013-01-25 23:51:00,14.7,8.4,30.18,NW,305,1.0,3.0,75,-99.99,,,0.00,1-wire,2013-01-26 05:51:00,
2013-01-25 23:56:00,14.3,8.3,30.18,NW,305,0.0,3.0,76,-99.99,,,0.00,1-wire,2013-01-26 05:56:00,